Time;durP1;ratioP1;P1;durP2;ratioP2;P2;SDS_P1;SDS_P2;PMS_P1;PMS_P2;Temp;Humidity;BMP_temperature;BMP_pressure;BME280_temperature;BME280_humidity;BME280_pressure;Samples;Min_cycle;Max_cycle;Signal;HPM_P1;HPM_P2
2023/04/13 00:00:55;;;;;;;5.90;5.30;;;18.10;48.90;;;;;;6289291;22;20163;-85
2023/04/13 00:03:31;;;;;;;6.22;5.63;;;18.00;48.90;;;;;;6211358;22;20235;-86
2023/04/13 00:06:02;;;;;;;5.88;5.28;;;18.20;49.00;;;;;;6237519;22;20574;-85
2023/04/13 00:08:37;;;;;;;6.03;5.43;;;18.00;48.90;;;;;;6186873;22;20152;-85
2023/04/13 00:11:09;;;;;;;5.90;5.30;;;18.10;49.00;;;;;;6211013;22;20262;-85
2023/04/13 00:13:39;;;;;;;6.03;5.43;;;18.10;49.00;;;;;;6242292;22;20191;-85
2023/04/13 00:16:07;;;;;;;5.85;5.28;;;18.10;49.00;;;;;;6295480;22;20119;-84
2023/04/13 00:18:33;;;;;;;5.97;5.38;;;18.10;49.10;;;;;;6317978;22;20128;-85
2023/04/13 00:20:59;;;;;;;6.43;5.68;;;18.00;49.00;;;;;;6292387;22;20178;-85
2023/04/13 00:23:25;;;;;;;6.10;5.50;;;18.00;49.10;;;;;;6318109;22;20127;-85
2023/04/13 00:25:58;;;;;;;5.90;5.30;;;18.00;49.00;;;;;;6317963;22;20554;-85
2023/04/13 00:28:30;;;;;;;5.75;5.25;;;18.00;49.00;;;;;;6242290;22;20179;-84
2023/04/13 00:30:56;;;;;;;5.97;5.22;;;18.00;49.10;;;;;;6241286;22;20182;-85
2023/04/13 00:33:22;;;;;;;5.90;5.30;;;18.00;49.70;;;;;;6318278;22;20148;-85
2023/04/13 00:35:52;;;;;;;6.22;5.53;;;18.00;49.00;;;;;;6292943;22;20139;-85
2023/04/13 00:38:18;;;;;;;6.05;5.45;;;18.00;49.10;;;;;;6240806;22;20152;-85
2023/04/13 00:40:44;;;;;;;5.78;5.22;;;18.00;49.10;;;;;;6318229;22;20589;-84
2023/04/13 00:43:14;;;;;;;6.15;5.30;;;18.00;49.10;;;;;;6345630;22;20131;-84
2023/04/13 00:45:40;;;;;;;6.10;5.50;;;18.00;49.10;;;;;;6240624;22;20170;-84
2023/04/13 00:48:08;;;;;;;6.13;5.30;;;18.00;49.40;;;;;;6318153;22;20562;-84
2023/04/13 00:50:38;;;;;;;6.13;5.53;;;18.00;49.20;;;;;;6292656;22;20151;-84
2023/04/13 00:53:12;;;;;;;5.93;5.20;;;18.00;49.10;;;;;;6266484;22;20147;-84
2023/04/13 00:55:42;;;;;;;5.75;5.20;;;18.00;49.00;;;;;;6242739;22;20151;-84
2023/04/13 00:58:13;;;;;;;6.22;5.63;;;18.00;49.10;;;;;;6215642;22;20169;-84
2023/04/13 01:00:41;;;;;;;5.95;5.35;;;18.00;49.10;;;;;;6240809;22;20151;-85
2023/04/13 01:03:12;;;;;;;6.35;5.75;;;18.00;49.10;;;;;;6319453;22;20128;-85
2023/04/13 01:05:49;;;;;;;6.13;5.53;;;18.00;49.00;;;;;;6240689;22;20448;-84
2023/04/13 01:08:24;;;;;;;6.70;5.78;;;18.00;49.00;;;;;;6218552;22;20578;-84
2023/04/13 01:11:06;;;;;;;6.22;5.63;;;18.00;49.10;;;;;;6216682;22;20147;-84
2023/04/13 01:13:51;;;;;;;6.13;5.53;;;18.00;49.10;;;;;;6241061;22;20224;-84
2023/04/13 01:16:20;;;;;;;6.20;5.60;;;18.00;49.20;;;;;;6267180;22;20147;-85
2023/04/13 01:18:49;;;;;;;6.40;5.32;;;18.00;49.90;;;;;;6317648;22;20175;-84
2023/04/13 01:21:23;;;;;;;6.25;5.65;;;18.00;49.20;;;;;;6317635;22;20127;-84
2023/04/13 01:24:08;;;;;;;5.80;5.20;;;18.00;49.10;;;;;;6241656;22;20267;-84
2023/04/13 01:26:57;;;;;;;6.20;5.60;;;18.00;49.20;;;;;;6317918;22;20491;-84
2023/04/13 01:29:24;;;;;;;6.07;5.40;;;18.00;49.30;;;;;;6251957;22;20209;-85
2023/04/13 01:31:55;;;;;;;6.05;5.45;;;17.90;49.20;;;;;;6317797;22;20175;-85
2023/04/13 01:34:25;;;;;;;5.78;5.10;;;17.90;49.10;;;;;;6240754;22;20147;-85
2023/04/13 01:36:55;;;;;;;6.53;5.68;;;18.00;49.10;;;;;;6215190;22;20478;-85
2023/04/13 01:39:30;;;;;;;6.05;5.45;;;18.00;49.10;;;;;;6265419;22;20567;-85
2023/04/13 01:42:02;;;;;;;6.18;5.45;;;18.00;49.90;;;;;;6220584;22;20155;-84
2023/04/13 01:44:31;;;;;;;6.15;5.55;;;18.00;49.30;;;;;;6265689;22;20204;-84
2023/04/13 01:47:14;;;;;;;6.50;5.90;;;17.90;49.20;;;;;;6317587;22;20155;-85
2023/04/13 01:49:43;;;;;;;5.97;5.38;;;18.00;49.40;;;;;;6249493;22;20148;-84
2023/04/13 01:52:10;;;;;;;6.05;5.45;;;17.90;49.20;;;;;;6317469;22;20512;-84
2023/04/13 01:54:40;;;;;;;6.20;5.60;;;17.90;49.20;;;;;;6292403;22;20518;-84
2023/04/13 01:57:07;;;;;;;5.78;5.18;;;17.90;49.20;;;;;;6241901;22;20234;-84
2023/04/13 01:59:33;;;;;;;6.03;5.43;;;17.90;49.10;;;;;;6318977;22;20124;-84
2023/04/13 02:01:59;;;;;;;5.50;5.00;;;17.90;49.20;;;;;;6320653;22;20151;-84
2023/04/13 02:04:25;;;;;;;6.00;5.40;;;17.90;49.20;;;;;;6294870;22;20183;-84
2023/04/13 02:06:55;;;;;;;5.90;5.30;;;17.90;49.30;;;;;;6320244;22;20583;-84
2023/04/13 02:09:27;;;;;;;6.03;5.43;;;17.90;49.30;;;;;;6243143;22;20151;-84
2023/04/13 02:11:54;;;;;;;6.22;5.60;;;17.90;49.30;;;;;;6269221;22;20179;-84
2023/04/13 02:14:20;;;;;;;6.93;5.57;;;17.90;49.30;;;;;;6314403;22;20506;-84
2023/04/13 02:16:51;;;;;;;6.45;5.50;;;17.90;49.40;;;;;;6291704;22;20144;-84
2023/04/13 02:19:21;;;;;;;5.88;5.35;;;17.90;49.30;;;;;;6243035;22;20239;-86
2023/04/13 02:21:54;;;;;;;6.28;5.68;;;17.90;49.40;;;;;;6217394;22;20159;-84
2023/04/13 02:24:20;;;;;;;6.10;5.50;;;17.90;49.30;;;;;;6218243;22;20162;-85
2023/04/13 02:26:46;;;;;;;6.63;5.95;;;17.80;49.40;;;;;;6320303;22;20131;-85
2023/04/13 02:29:16;;;;;;;6.28;5.68;;;17.90;49.40;;;;;;6293955;22;20151;-84
2023/04/13 02:31:43;;;;;;;5.90;5.32;;;17.90;49.30;;;;;;6267879;22;20671;-84
2023/04/13 02:34:10;;;;;;;6.50;5.47;;;17.90;49.40;;;;;;6320442;22;20131;-85
2023/04/13 02:36:37;;;;;;;5.25;4.75;;;17.90;49.30;;;;;;6294891;22;20234;-85
2023/04/13 02:39:03;;;;;;;5.97;5.38;;;17.90;49.20;;;;;;6294734;22;20627;-84
2023/04/13 02:41:28;;;;;;;6.13;5.53;;;17.90;49.40;;;;;;6320206;22;20151;-84
2023/04/13 02:43:55;;;;;;;5.45;4.95;;;17.90;49.30;;;;;;6294531;22;20554;-84
2023/04/13 02:46:22;;;;;;;5.95;5.38;;;18.00;49.30;;;;;;6320988;22;20132;-85
2023/04/13 02:48:53;;;;;;;6.10;5.50;;;17.90;50.00;;;;;;6320326;22;20187;-84
2023/04/13 02:51:18;;;;;;;6.00;5.40;;;17.90;49.40;;;;;;6267662;22;20252;-85
2023/04/13 02:53:44;;;;;;;6.63;5.93;;;17.90;49.40;;;;;;6346947;22;20132;-84
2023/04/13 02:56:10;;;;;;;5.93;5.32;;;17.90;49.40;;;;;;6319640;22;20154;-85
2023/04/13 02:58:40;;;;;;;6.53;5.47;;;17.90;49.40;;;;;;6293555;22;20158;-84
2023/04/13 03:01:06;;;;;;;6.25;5.65;;;17.80;49.40;;;;;;6242313;22;20483;-85
2023/04/13 03:03:32;;;;;;;6.53;5.78;;;17.90;49.40;;;;;;6319934;22;20127;-85
2023/04/13 03:06:00;;;;;;;6.35;5.68;;;17.90;49.50;;;;;;6293877;22;20155;-84
2023/04/13 03:08:29;;;;;;;5.93;5.32;;;17.90;49.40;;;;;;6320777;22;20135;-84
2023/04/13 03:10:55;;;;;;;5.80;5.20;;;17.90;49.50;;;;;;6267084;22;20209;-84
2023/04/13 03:13:21;;;;;;;5.85;5.28;;;17.90;49.40;;;;;;6292616;22;20633;-84
2023/04/13 03:15:47;;;;;;;6.18;5.57;;;17.90;49.50;;;;;;6320079;22;20522;-84
2023/04/13 03:18:13;;;;;;;5.88;5.38;;;17.90;49.40;;;;;;6319265;22;20132;-85
2023/04/13 03:20:43;;;;;;;6.22;5.63;;;17.90;49.40;;;;;;6319265;22;20463;-85
2023/04/13 03:23:10;;;;;;;5.70;5.20;;;17.90;49.40;;;;;;6242155;22;20209;-84
2023/04/13 03:25:36;;;;;;;6.00;5.40;;;17.90;49.40;;;;;;6346971;22;20158;-84
2023/04/13 03:28:02;;;;;;;5.90;5.30;;;17.90;49.40;;;;;;6293452;22;20147;-84
2023/04/13 03:30:28;;;;;;;6.03;5.35;;;17.80;49.40;;;;;;6320488;22;20173;-84
2023/04/13 03:32:58;;;;;;;5.70;5.10;;;17.80;49.50;;;;;;6319571;22;20459;-84
2023/04/13 03:35:28;;;;;;;5.95;5.35;;;17.80;49.40;;;;;;6241872;22;20151;-84
2023/04/13 03:37:58;;;;;;;5.95;5.35;;;17.90;49.50;;;;;;6216826;22;20154;-84
2023/04/13 03:40:24;;;;;;;6.28;5.68;;;17.80;49.40;;;;;;6217957;22;20157;-84
2023/04/13 03:42:50;;;;;;;6.50;5.82;;;17.80;49.60;;;;;;6319293;22;20454;-85
2023/04/13 03:45:21;;;;;;;6.20;5.60;;;17.80;49.40;;;;;;6292473;22;20151;-84
2023/04/13 03:47:47;;;;;;;6.00;5.40;;;17.90;49.40;;;;;;6241969;22;20159;-84
2023/04/13 03:50:19;;;;;;;5.93;5.30;;;17.80;49.50;;;;;;6293111;22;20175;-84
2023/04/13 03:52:44;;;;;;;5.97;5.38;;;17.80;49.50;;;;;;6266446;22;20183;-84
2023/04/13 03:55:17;;;;;;;5.75;5.15;;;17.80;49.50;;;;;;6319233;22;20162;-84
2023/04/13 03:57:46;;;;;;;5.97;5.38;;;17.80;49.50;;;;;;6217476;22;20154;-84
2023/04/13 04:00:17;;;;;;;6.20;5.60;;;17.90;49.50;;;;;;6241296;22;20202;-84
2023/04/13 04:02:43;;;;;;;6.65;5.80;;;17.80;49.60;;;;;;6266814;22;20203;-84
2023/04/13 04:05:09;;;;;;;6.03;5.43;;;17.90;49.50;;;;;;6318629;22;20432;-84
2023/04/13 04:07:39;;;;;;;5.78;4.95;;;17.80;49.70;;;;;;6318818;22;20539;-84
2023/04/13 04:10:09;;;;;;;5.57;5.07;;;17.80;49.60;;;;;;6241340;22;20189;-84
2023/04/13 04:12:39;;;;;;;6.28;5.68;;;17.80;50.30;;;;;;6240844;22;20206;-84
2023/04/13 04:15:06;;;;;;;5.72;5.13;;;17.80;49.70;;;;;;6266248;22;20163;-84
2023/04/13 04:17:32;;;;;;;5.93;5.32;;;17.80;49.80;;;;;;6318898;22;20147;-84
2023/04/13 04:19:58;;;;;;;6.00;5.40;;;17.80;49.70;;;;;;6318728;22;20127;-84
2023/04/13 04:22:33;;;;;;;6.00;5.40;;;17.70;49.60;;;;;;6292442;22;20155;-84
2023/04/13 04:25:03;;;;;;;5.70;5.15;;;17.80;49.60;;;;;;6268962;22;20196;-84
2023/04/13 04:27:36;;;;;;;5.88;5.28;;;17.80;49.60;;;;;;6240905;22;20201;-84
2023/04/13 04:30:09;;;;;;;6.03;5.45;;;17.80;49.50;;;;;;6243756;22;20200;-84
2023/04/13 04:32:42;;;;;;;5.90;5.25;;;17.80;49.50;;;;;;6242540;22;20202;-84
2023/04/13 04:35:10;;;;;;;6.10;5.40;;;17.90;49.60;;;;;;6265933;22;20155;-85
2023/04/13 04:37:39;;;;;;;5.78;5.28;;;17.80;49.60;;;;;;6292285;22;20215;-85
2023/04/13 04:40:11;;;;;;;6.00;5.25;;;17.80;49.60;;;;;;6215547;22;20147;-85
2023/04/13 04:42:42;;;;;;;6.35;5.60;;;17.80;49.60;;;;;;6218239;22;20155;-84
2023/04/13 04:45:14;;;;;;;6.22;5.40;;;17.80;49.60;;;;;;6215713;22;20182;-85
2023/04/13 04:47:42;;;;;;;5.90;5.28;;;17.70;50.30;;;;;;6266527;22;20171;-84
2023/04/13 04:50:13;;;;;;;6.40;5.80;;;17.80;49.80;;;;;;6318771;22;20188;-84
2023/04/13 04:52:40;;;;;;;6.03;5.43;;;17.80;49.80;;;;;;6241288;22;20622;-84
2023/04/13 04:55:07;;;;;;;6.25;5.65;;;17.70;49.80;;;;;;6293115;22;20136;-84
2023/04/13 04:57:33;;;;;;;5.55;5.05;;;17.70;49.70;;;;;;6346740;22;20124;-84
2023/04/13 05:02:43;;;;;;;6.07;5.47;;;17.80;49.80;;;;;;6269416;22;20479;-84
2023/04/13 05:05:12;;;;;;;6.25;5.57;;;17.80;49.80;;;;;;6318930;22;20127;-84
2023/04/13 05:07:44;;;;;;;6.28;5.30;;;17.70;49.80;;;;;;6241613;22;20174;-84
2023/04/13 05:10:10;;;;;;;5.85;5.25;;;17.80;49.80;;;;;;6242548;22;20151;-84
2023/04/13 05:12:40;;;;;;;5.72;5.13;;;17.80;49.80;;;;;;6318424;22;20179;-84
2023/04/13 05:15:07;;;;;;;6.13;5.53;;;17.70;49.70;;;;;;6241320;22;20166;-84
2023/04/13 05:17:35;;;;;;;6.03;5.43;;;17.70;49.80;;;;;;6318602;22;20163;-84
2023/04/13 05:20:02;;;;;;;6.13;5.53;;;17.70;49.70;;;;;;6319321;22;20127;-84
2023/04/13 05:22:33;;;;;;;6.47;5.88;;;17.80;49.80;;;;;;6318927;22;20131;-84
2023/04/13 05:24:59;;;;;;;5.57;4.97;;;17.80;49.80;;;;;;6242167;22;20151;-84
2023/04/13 05:27:25;;;;;;;5.78;5.18;;;17.70;49.80;;;;;;6319722;22;20208;-84
2023/04/13 05:29:51;;;;;;;5.95;5.35;;;17.70;49.70;;;;;;6347679;22;20132;-84
2023/04/13 05:32:17;;;;;;;5.93;5.40;;;17.70;49.70;;;;;;6347167;22;20593;-84
2023/04/13 05:34:43;;;;;;;6.07;5.47;;;17.80;49.80;;;;;;6319755;22;20166;-84
2023/04/13 05:37:10;;;;;;;6.15;5.55;;;17.80;49.80;;;;;;6295998;22;20150;-84
2023/04/13 05:39:39;;;;;;;6.35;5.75;;;17.70;49.80;;;;;;6321997;22;20150;-84
2023/04/13 05:42:06;;;;;;;6.50;5.70;;;17.70;49.80;;;;;;6219979;22;20151;-84
2023/04/13 05:44:37;;;;;;;5.95;5.35;;;17.70;49.80;;;;;;6322251;22;20131;-84
2023/04/13 05:47:03;;;;;;;6.20;5.60;;;17.70;49.80;;;;;;6269628;22;20210;-84
2023/04/13 05:49:34;;;;;;;5.95;5.35;;;17.70;49.80;;;;;;6296243;22;20148;-84
2023/04/13 05:52:00;;;;;;;5.80;5.20;;;17.80;49.80;;;;;;6244517;22;20179;-84
2023/04/13 05:54:30;;;;;;;6.05;5.45;;;17.80;49.70;;;;;;6295821;22;20597;-84
2023/04/13 05:57:00;;;;;;;5.55;5.05;;;17.80;49.60;;;;;;6220286;22;20672;-84
2023/04/13 05:59:30;;;;;;;6.07;5.47;;;17.70;49.60;;;;;;6271786;22;20605;-83
2023/04/13 06:01:57;;;;;;;5.88;5.28;;;17.80;49.60;;;;;;6221961;22;20151;-83
2023/04/13 06:04:25;;;;;;;6.03;5.43;;;17.80;49.70;;;;;;6324490;22;20196;-83
2023/04/13 06:06:51;;;;;;;6.07;5.47;;;17.80;49.60;;;;;;6324978;22;20184;-83
2023/04/13 06:09:18;;;;;;;5.43;4.93;;;17.80;49.60;;;;;;6297987;22;20520;-83
2023/04/13 06:11:47;;;;;;;5.88;5.28;;;17.80;49.70;;;;;;6299584;22;20187;-83
2023/04/13 06:14:17;;;;;;;5.97;5.38;;;17.70;49.70;;;;;;6221360;22;20526;-83
2023/04/13 06:16:43;;;;;;;5.68;5.18;;;17.70;49.80;;;;;;6272648;22;20154;-83
2023/04/13 06:19:11;;;;;;;6.30;5.60;;;17.70;49.80;;;;;;6324745;22;20530;-83
2023/04/13 06:21:37;;;;;;;6.00;5.40;;;17.70;49.90;;;;;;6297837;22;20261;-84
2023/04/13 06:24:09;;;;;;;6.00;5.40;;;17.80;49.80;;;;;;6323215;22;20215;-83
2023/04/13 06:26:35;;;;;;;5.88;5.28;;;17.80;49.80;;;;;;6271016;22;20151;-83
2023/04/13 06:29:01;;;;;;;6.05;5.45;;;17.80;49.90;;;;;;6298680;22;20168;-84
2023/04/13 06:31:32;;;;;;;6.20;5.45;;;17.80;49.90;;;;;;6296803;22;20171;-85
2023/04/13 06:33:59;;;;;;;5.95;5.35;;;17.70;49.90;;;;;;6219353;22;20157;-85
2023/04/13 06:36:29;;;;;;;5.68;5.18;;;17.70;49.80;;;;;;6350367;22;20555;-84
2023/04/13 06:38:55;;;;;;;5.25;4.75;;;17.70;49.80;;;;;;6244823;22;20242;-85
2023/04/13 06:41:26;;;;;;;5.95;5.35;;;17.70;49.60;;;;;;6297736;22;20147;-84
2023/04/13 06:43:55;;;;;;;5.07;4.57;;;17.90;49.50;;;;;;6271522;22;20157;-84
2023/04/13 06:46:21;;;;;;;5.18;4.68;;;17.90;49.30;;;;;;6221285;22;20198;-84
2023/04/13 06:48:51;;;;;;;4.75;4.25;;;18.00;49.20;;;;;;6296612;22;20158;-84
2023/04/13 06:51:17;;;;;;;5.30;4.80;;;18.10;48.70;;;;;;6219567;22;20186;-84
2023/04/13 06:53:50;;;;;;;5.60;4.75;;;18.10;48.70;;;;;;6323185;22;20132;-83
2023/04/13 06:56:19;;;;;;;5.40;4.90;;;18.20;48.70;;;;;;6244863;22;20169;-85
2023/04/13 06:58:49;;;;;;;5.28;4.78;;;18.20;48.50;;;;;;6220045;22;20147;-85
2023/04/13 07:01:19;;;;;;;5.43;4.93;;;18.20;48.40;;;;;;6219708;22;20227;-84
2023/04/13 07:03:45;;;;;;;4.50;4.10;;;18.20;48.40;;;;;;6245168;22;20506;-84
2023/04/13 07:06:11;;;;;;;4.82;4.35;;;18.30;48.20;;;;;;6321832;22;20135;-85
2023/04/13 07:08:37;;;;;;;5.03;4.60;;;18.30;48.10;;;;;;6321415;22;20159;-85
2023/04/13 07:11:03;;;;;;;4.85;4.35;;;18.30;48.40;;;;;;6295272;22;22433;-84
2023/04/13 07:13:29;;;;;;;5.30;4.80;;;18.20;48.50;;;;;;6294203;22;20683;-83
2023/04/13 07:15:54;;;;;;;4.50;4.10;;;18.10;48.80;;;;;;6268659;22;20143;-84
2023/04/13 07:18:22;;;;;;;5.53;4.72;;;18.20;48.70;;;;;;6296534;22;20155;-84
2023/04/13 07:20:48;;;;;;;4.70;4.20;;;18.10;48.50;;;;;;6269674;22;20147;-84
2023/04/13 07:23:13;;;;;;;4.93;4.43;;;18.20;48.50;;;;;;6295688;22;20150;-84
2023/04/13 07:25:40;;;;;;;5.18;4.28;;;18.30;48.40;;;;;;6294027;22;20151;-84
2023/04/13 07:28:07;;;;;;;4.40;4.00;;;18.30;48.50;;;;;;6349875;22;20132;-84
2023/04/13 07:30:32;;;;;;;5.00;4.50;;;18.30;48.40;;;;;;6270364;22;20143;-84
2023/04/13 07:32:58;;;;;;;4.55;4.15;;;18.30;48.40;;;;;;6294788;22;20175;-84
2023/04/13 07:35:24;;;;;;;4.90;4.40;;;18.30;48.50;;;;;;6293858;22;20132;-84
2023/04/13 07:37:49;;;;;;;4.45;4.05;;;18.20;48.50;;;;;;6270063;22;20538;-84
2023/04/13 07:40:15;;;;;;;4.50;4.10;;;18.30;48.30;;;;;;6296880;22;20151;-85
2023/04/13 07:42:42;;;;;;;4.60;4.07;;;18.30;48.40;;;;;;6297418;22;20218;-85
2023/04/13 07:45:09;;;;;;;4.50;4.10;;;18.30;48.30;;;;;;6273241;22;20162;-86
2023/04/13 07:47:37;;;;;;;4.60;3.95;;;18.30;48.20;;;;;;6321649;22;20143;-85
2023/04/13 07:50:05;;;;;;;5.13;4.25;;;18.30;48.30;;;;;;6293524;22;20192;-85
2023/04/13 07:52:31;;;;;;;4.10;3.70;;;18.30;48.50;;;;;;6269940;22;20171;-84
2023/04/13 07:55:02;;;;;;;4.70;4.22;;;18.30;48.20;;;;;;6297265;22;20194;-85
2023/04/13 07:57:28;;;;;;;4.05;3.65;;;18.40;48.20;;;;;;6321423;22;20162;-86
2023/04/13 07:59:54;;;;;;;4.65;3.88;;;18.40;48.20;;;;;;6268554;22;20135;-85
2023/04/13 08:02:23;;;;;;;4.18;3.70;;;18.40;48.20;;;;;;6317281;22;20144;-85
2023/04/13 08:04:49;;;;;;;4.25;3.85;;;18.30;48.40;;;;;;6315939;22;20147;-85
2023/04/13 08:07:15;;;;;;;4.55;3.55;;;18.30;48.50;;;;;;6319807;22;20178;-85
2023/04/13 08:09:48;;;;;;;4.85;3.80;;;18.30;48.50;;;;;;6293604;22;20147;-84
2023/04/13 08:12:14;;;;;;;4.72;3.88;;;18.30;48.40;;;;;;6238165;22;20266;-85
2023/04/13 08:14:44;;;;;;;4.15;3.67;;;18.30;48.50;;;;;;6291306;22;20190;-84
2023/04/13 08:17:10;;;;;;;3.90;3.50;;;18.30;48.70;;;;;;6214796;22;20535;-85
2023/04/13 08:19:36;;;;;;;4.15;3.72;;;18.30;48.50;;;;;;6268561;22;20173;-85
2023/04/13 08:22:05;;;;;;;3.50;3.20;;;18.30;48.40;;;;;;6293893;22;20132;-86
2023/04/13 08:24:35;;;;;;;4.43;3.60;;;18.40;48.10;;;;;;6319070;22;20140;-84
2023/04/13 08:27:01;;;;;;;4.32;3.70;;;18.40;48.00;;;;;;6319197;22;20139;-85
2023/04/13 08:29:27;;;;;;;4.10;3.60;;;18.50;47.80;;;;;;6319675;22;20131;-84
2023/04/13 08:31:53;;;;;;;4.78;3.40;;;18.60;48.00;;;;;;6292724;22;20473;-85
2023/04/13 08:34:19;;;;;;;4.22;3.63;;;18.60;48.00;;;;;;6271024;22;20625;-85
2023/04/13 08:36:45;;;;;;;3.80;3.50;;;18.50;48.00;;;;;;6291247;22;20198;-85
2023/04/13 08:39:12;;;;;;;3.35;3.05;;;18.50;48.30;;;;;;6264987;22;20143;-84
2023/04/13 08:41:37;;;;;;;3.50;3.20;;;18.60;48.30;;;;;;6292992;22;20213;-85
2023/04/13 08:44:06;;;;;;;3.72;3.40;;;18.50;48.00;;;;;;6295029;22;20574;-85
2023/04/13 08:46:36;;;;;;;3.80;3.50;;;18.60;47.90;;;;;;6266783;22;20143;-85
2023/04/13 08:49:03;;;;;;;3.58;3.28;;;18.60;48.00;;;;;;6240974;22;20174;-84
2023/04/13 08:51:29;;;;;;;4.10;3.45;;;18.50;48.10;;;;;;6345525;22;20225;-85
2023/04/13 08:53:55;;;;;;;4.32;3.50;;;18.50;48.00;;;;;;6292692;22;20466;-84
2023/04/13 08:56:21;;;;;;;3.60;3.25;;;18.60;48.10;;;;;;6319336;22;20151;-85
2023/04/13 08:58:48;;;;;;;3.90;3.30;;;18.60;47.60;;;;;;6316871;22;20543;-84
2023/04/13 09:01:15;;;;;;;3.40;3.10;;;18.60;48.00;;;;;;6268329;22;20143;-84
2023/04/13 09:03:52;;;;;;;3.85;2.97;;;18.60;47.90;;;;;;6272707;22;20161;-84
2023/04/13 09:06:31;;;;;;;3.80;3.30;;;18.60;47.90;;;;;;6224730;22;20154;-84
2023/04/13 09:08:59;;;;;;;3.60;3.30;;;18.60;48.00;;;;;;6223622;22;20446;-84
2023/04/13 09:11:27;;;;;;;3.53;3.22;;;18.60;48.00;;;;;;6271505;22;20244;-84
2023/04/13 09:13:53;;;;;;;3.53;3.20;;;18.60;47.80;;;;;;6272243;22;20191;-85
2023/04/13 09:16:23;;;;;;;3.38;3.08;;;18.60;47.70;;;;;;6323872;22;20139;-85
2023/04/13 09:18:54;;;;;;;5.65;3.15;;;18.70;48.00;;;;;;6247455;22;20154;-84
2023/04/13 09:21:34;;;;;;;3.67;3.38;;;18.60;47.90;;;;;;6222797;22;20201;-84
2023/04/13 09:24:03;;;;;;;5.45;3.17;;;18.70;47.90;;;;;;6255954;22;20158;-83
2023/04/13 09:26:42;;;;;;;3.20;2.90;;;18.60;47.70;;;;;;6240644;22;20151;-83
2023/04/13 09:29:17;;;;;;;2.80;2.60;;;18.70;47.90;;;;;;6238214;22;20190;-85
2023/04/13 09:31:50;;;;;;;4.43;3.25;;;18.60;48.10;;;;;;6251055;22;20189;-84
2023/04/13 09:34:29;;;;;;;4.38;3.00;;;18.60;48.40;;;;;;6245448;22;20167;-84
2023/04/13 09:37:10;;;;;;;3.95;2.92;;;18.60;47.90;;;;;;6244904;22;20151;-83
2023/04/13 09:39:38;;;;;;;3.22;2.92;;;18.60;48.10;;;;;;6248925;22;20453;-82
2023/04/13 09:42:16;;;;;;;3.17;2.78;;;18.50;47.90;;;;;;6219681;22;20170;-84
2023/04/13 09:44:54;;;;;;;5.22;3.55;;;18.60;48.00;;;;;;6245186;22;20174;-85
2023/04/13 09:47:37;;;;;;;4.03;3.03;;;18.60;48.20;;;;;;6267794;22;20211;-85
2023/04/13 09:50:04;;;;;;;5.10;3.05;;;18.50;48.20;;;;;;6253886;22;20150;-85
2023/04/13 09:52:32;;;;;;;3.40;3.00;;;18.60;48.20;;;;;;6266703;22;20305;-84
2023/04/13 09:55:00;;;;;;;5.97;3.08;;;18.50;48.20;;;;;;6237994;22;20244;-84
2023/04/13 09:57:30;;;;;;;5.05;3.00;;;18.60;48.30;;;;;;6239340;22;20150;-84
2023/04/13 10:00:13;;;;;;;5.32;3.13;;;18.50;48.30;;;;;;6240296;22;20230;-84
2023/04/13 10:02:55;;;;;;;11.13;3.17;;;18.60;48.30;;;;;;6239722;22;20508;-84
2023/04/13 10:05:35;;;;;;;4.72;3.13;;;18.60;48.10;;;;;;6239889;22;20147;-84
2023/04/13 10:08:14;;;;;;;9.55;3.20;;;18.60;48.00;;;;;;6237995;22;20159;-83
2023/04/13 10:10:54;;;;;;;6.55;3.15;;;18.60;48.40;;;;;;6212145;22;20151;-83
2023/04/13 10:13:22;;;;;;;10.07;3.25;;;18.60;48.10;;;;;;6227658;22;20274;-85
2023/04/13 10:16:25;;;;;;;7.57;2.90;;;18.60;48.60;;;;;;6284607;22;20144;-83
2023/04/13 10:19:20;;;;;;;6.88;3.03;;;18.60;48.50;;;;;;6283653;22;20232;-83
2023/04/13 10:22:01;;;;;;;5.07;3.08;;;18.60;48.00;;;;;;6181959;22;20528;-82
2023/04/13 10:24:40;;;;;;;3.90;2.85;;;18.60;48.30;;;;;;6211584;22;20579;-83
2023/04/13 10:27:26;;;;;;;8.95;3.38;;;18.70;47.90;;;;;;6238692;22;20159;-84
2023/04/13 10:30:15;;;;;;;5.68;3.03;;;18.70;48.00;;;;;;6312866;22;20239;-83
2023/04/13 10:33:15;;;;;;;11.10;3.30;;;18.60;48.00;;;;;;6221208;22;20194;-84
2023/04/13 10:35:53;;;;;;;6.53;3.00;;;18.70;47.60;;;;;;6257228;22;20601;-84
2023/04/13 10:38:40;;;;;;;11.48;3.53;;;18.70;47.80;;;;;;6233851;22;20174;-83
2023/04/13 10:41:38;;;;;;;8.65;3.08;;;18.70;48.40;;;;;;6197015;22;20553;-84
2023/04/13 10:44:16;;;;;;;6.25;3.08;;;18.70;48.10;;;;;;6234884;22;20148;-84
2023/04/13 10:47:04;;;;;;;10.63;2.70;;;18.70;47.70;;;;;;6209704;22;20512;-84
2023/04/13 10:49:43;;;;;;;6.40;2.83;;;18.70;48.00;;;;;;6238831;22;20152;-84
2023/04/13 10:52:14;;;;;;;6.18;2.97;;;18.80;48.20;;;;;;6211976;22;20225;-84
2023/04/13 10:54:50;;;;;;;8.35;2.85;;;18.80;47.80;;;;;;6210189;22;20152;-85
2023/04/13 10:57:32;;;;;;;5.88;3.00;;;18.80;48.00;;;;;;6235813;22;20155;-84
2023/04/13 11:00:14;;;;;;;7.30;3.00;;;18.70;48.10;;;;;;6188947;22;20155;-84
2023/04/13 11:02:50;;;;;;;5.60;2.75;;;18.70;48.10;;;;;;6189117;22;20242;-83
2023/04/13 11:05:26;;;;;;;5.22;2.88;;;18.70;48.00;;;;;;6210236;22;20226;-84
2023/04/13 11:08:03;;;;;;;5.63;3.20;;;18.70;48.10;;;;;;6234076;22;20201;-84
2023/04/13 11:10:37;;;;;;;9.02;2.97;;;18.70;48.30;;;;;;6210780;22;20491;-85
2023/04/13 11:13:04;;;;;;;5.05;2.97;;;18.60;48.30;;;;;;6213618;22;20202;-84
2023/04/13 11:15:38;;;;;;;6.28;3.03;;;18.60;48.30;;;;;;6267875;22;20216;-85
2023/04/13 11:18:11;;;;;;;4.57;2.95;;;18.60;48.10;;;;;;6264832;22;20474;-85
2023/04/13 11:20:44;;;;;;;5.65;2.80;;;18.70;48.00;;;;;;6239224;22;20151;-84
2023/04/13 11:23:22;;;;;;;3.83;2.38;;;18.80;47.80;;;;;;6238597;22;20216;-85
2023/04/13 11:25:58;;;;;;;3.35;2.80;;;18.70;47.80;;;;;;6241180;22;20222;-84
2023/04/13 11:28:45;;;;;;;5.47;3.00;;;18.70;48.00;;;;;;6215820;22;20471;-85
2023/04/13 11:31:36;;;;;;;4.30;2.53;;;18.70;48.10;;;;;;6226555;22;20806;-86
2023/04/13 11:34:08;;;;;;;4.45;2.95;;;18.70;48.10;;;;;;6245501;22;20147;-84
2023/04/13 11:36:38;;;;;;;6.45;2.97;;;18.70;48.00;;;;;;6215122;22;20524;-85
2023/04/13 11:39:13;;;;;;;5.10;2.85;;;18.70;48.30;;;;;;6263718;22;20148;-84
2023/04/13 11:41:46;;;;;;;6.90;2.90;;;18.70;48.30;;;;;;6215393;22;20155;-85
2023/04/13 11:44:17;;;;;;;8.27;3.42;;;18.70;48.30;;;;;;6264186;22;20151;-83
2023/04/13 11:46:50;;;;;;;5.10;2.90;;;18.70;48.00;;;;;;6261088;22;20281;-83
2023/04/13 11:49:21;;;;;;;9.00;3.08;;;18.70;48.00;;;;;;6211493;22;20265;-84
2023/04/13 11:51:51;;;;;;;6.93;3.20;;;18.70;47.90;;;;;;6235267;22;20194;-84
2023/04/13 11:54:21;;;;;;;8.45;2.80;;;18.80;48.10;;;;;;6260115;22;20525;-84
2023/04/13 11:56:51;;;;;;;7.70;2.72;;;18.70;48.20;;;;;;6234945;22;20159;-84
2023/04/13 11:59:26;;;;;;;5.05;2.50;;;18.70;48.10;;;;;;6260226;22;20508;-83
2023/04/13 12:01:56;;;;;;;5.35;2.88;;;18.80;48.00;;;;;;6261642;22;20518;-85
2023/04/13 12:04:26;;;;;;;3.72;2.55;;;18.80;48.10;;;;;;6263220;22;20155;-84
2023/04/13 12:06:56;;;;;;;5.03;2.75;;;18.70;48.10;;;;;;6238303;22;20155;-84
2023/04/13 12:09:26;;;;;;;4.57;2.72;;;18.70;48.30;;;;;;6237224;22;20158;-83
2023/04/13 12:11:56;;;;;;;4.53;2.50;;;18.60;48.30;;;;;;6262817;22;20182;-84
2023/04/13 12:14:25;;;;;;;6.15;2.92;;;18.70;48.40;;;;;;6217500;22;20554;-83
2023/04/13 12:16:56;;;;;;;5.93;2.53;;;18.70;48.30;;;;;;6231936;22;20154;-83
2023/04/13 12:19:25;;;;;;;6.63;2.85;;;18.70;48.30;;;;;;6232215;22;20583;-83
2023/04/13 12:21:55;;;;;;;3.55;2.95;;;18.70;48.50;;;;;;6232552;22;20151;-83
2023/04/13 12:24:34;;;;;;;4.00;2.75;;;18.70;48.60;;;;;;6207783;22;20152;-83
2023/04/13 12:27:02;;;;;;;3.25;2.53;;;18.50;48.70;;;;;;6208205;22;20591;-83
2023/04/13 12:29:31;;;;;;;4.28;2.58;;;18.60;48.50;;;;;;6259295;22;20128;-83
2023/04/13 12:32:02;;;;;;;4.00;2.60;;;18.70;48.40;;;;;;6205780;22;20630;-84
2023/04/13 12:34:30;;;;;;;6.28;2.80;;;18.60;48.60;;;;;;6281300;22;20132;-84
2023/04/13 12:36:56;;;;;;;4.82;2.55;;;18.60;48.70;;;;;;6228927;22;20152;-84
2023/04/13 12:39:25;;;;;;;2.60;2.40;;;18.60;48.50;;;;;;6229853;22;20144;-84
2023/04/13 12:41:56;;;;;;;3.55;2.50;;;18.70;48.60;;;;;;6204920;22;20525;-84
2023/04/13 12:44:24;;;;;;;2.60;2.40;;;18.60;48.60;;;;;;6207327;22;20205;-84
2023/04/13 12:46:54;;;;;;;4.43;2.40;;;18.60;48.80;;;;;;6233921;22;20171;-83
2023/04/13 12:49:22;;;;;;;2.88;2.60;;;18.60;48.80;;;;;;6206601;22;20151;-84
2023/04/13 12:51:49;;;;;;;3.22;2.70;;;18.60;48.70;;;;;;6207038;22;20179;-83
2023/04/13 12:54:17;;;;;;;3.97;2.70;;;18.60;48.90;;;;;;6230275;22;20155;-84
2023/04/13 12:56:47;;;;;;;7.78;2.70;;;18.60;48.80;;;;;;6230007;22;20152;-84
2023/04/13 12:59:15;;;;;;;2.70;2.40;;;18.70;48.70;;;;;;6230431;22;20222;-83
2023/04/13 13:01:42;;;;;;;2.80;2.50;;;18.70;48.60;;;;;;6230353;22;20290;-84
2023/04/13 13:04:10;;;;;;;3.95;2.35;;;18.70;48.40;;;;;;6207235;22;20162;-83